Hlavní strana
METAR-TAF:

METAR-TAF

Letiště :

Maputo, Mosambik

zeměpisná šířka: 25-55S, zeměpisná délka: 032-34E, výška: 39 m

Aktuální stav počasí

Zpráva byla vytvořena před 44 minutami, v 21:00 UTC
Východoseverovýchodní vítr 6 kt
Teplota 24°C
Vlhkost vzduchu 69%
Tlak 1014 hPa
Viditelnost 10 km a více
Skoro jasno ve výšce 2000 ft

METAR: FQMA 222100Z 07006KT 9999 FEW020 24/18 Q1014 NOSIG

Čas: 23:44 (21:44 UTC)

Předpověď počasí

Zpráva byla vytvořena před 5 hodinami a 44 minutami, v 16:00 UTC
Předpověď platná od 22 v 18 UTC do 23 v 24 UTC
Východní vítr 8 kt
Viditelnost 10 km a více
Polojasno ve výšce 2000 ft
Změna
od 23 v 00 UTC do 23 v 02 UTC
vítr z různých směrů 2 kt
Změna
od 23 v 06 UTC do 23 v 08 UTC
Severní vítr 8 kt
Změna
od 23 v 12 UTC do 23 v 14 UTC
Východoseverovýchodní vítr 12 kt
Změna
od 23 v 18 UTC do 23 v 20 UTC
Severní vítr 8 kt

TAF: FQMA 221600Z 2218/2324 10008KT 9999 SCT020 BECMG 2300/2302 VRB02KT BECMG 2306/2308 35008KT BECMG 2312/2314 06012KT BECMG 2318/2320 35008KT TX34/2313ZTN21/2303Z

Stav a předpovědi počasí z více než 4 000 letišť (zprávy METAR a TAF).

Červené a žluté tečky na mapě představují dostupné meteorologické stanice.

Když kurzor umístíte na tečku, zobrazí se název stanice.

Pak kliknutím zobrazíte stav a předpověď počasí.

Chcete-li změnit mapu, kliknutím na zelené tlačítko se znaménkem +mapu přiblížíte, kliknutím na zelené tlačítko se znaménkem – mapu oddálíte a kliknutím na zelené šipky přejdete na sousední mapy.


METAR-TAF: